Etusivu
METAR-TAF:

METAR-TAF

Lentoasemat :

Zeltwegin lentokenttä

Zeltweg, Itävalta

Leveyspiiri: 47-12N, Pituuspiiri: 014-45E, korkeus merenpinnasta: 677 m

Tämänhetkinen sää

Tämä raportti tehtiin 1 tunti ja 4 minuuttia sitten, kello 15.50 UTC
Tuuli 1 kn lännestä/lounaasta
Lämpötila -1°C
Kosteus 80%
Ilmanpaine 1022 hPa

METAR: LOXZ 051550Z 25001KT 20KM FEW300CI M01/M04 Q1022 NOSIG

Aika: 17:54 (16:54 UTC)

Sääennuste

Tämä raportti tehtiin 5 tuntia ja 39 minuuttia sitten, kello 11.15 UTC
Ennuste voimassa 05. päivästä klo 12 UTC - 05. päivään klo 21 UTC
Tuuli 3 kn eri suunnista
Näkyvyys 10 km tai enemmän
Muutamia pilviä 30000 ft:n korkeudessa

TAF: LOXZ 051115Z 0512/0521 VRB03KT 9999 FEW300

Säähavainnot ja -ennusteet yli 4000 lentoasemalta (METAR- ja TAF-raportit).

Käytössä olevat sääasemat on merkitty karttaan keltaisilla ja punaisilla pisteillä.

Aseta hiiri pisteen päälle nähdäksesi sääaseman nimen.

Klikkaa sitten nähdäksesi säähavainnot ja -ennusteet.

Kartan vaihtaminen: klikkaa mustalla rastilla varustettuja vihreitä pisteitä, niin voit zoomata sisään; viivalla varustettua vihreää pistettä, niin voit zoomata ulos tai vihreitä nuolia, niin pääset viereisille kartoille.


METAR-TAF: